Stewart J. Cort — WDC6055 — position and weather

sailwx.info

Track history (hours):
 
Tides and Currents Weather Stations Pressure Air Temp Water Temp Dewpoint Dewpoint Depression Visibility Wind Speed Wind Dir Waves Ship Positions

Stewart J. Cort

Owner: THE INTERLAKE STEAMSHIP COMPANY, Middleburg Heights, OH. More information available from US FCC via Universal Licensing System and Coast Guard Vessel Documentation Center.

Last reported at 2018-Jan-17 00:00 UTC. Time now 2018-Jan-23 03:38 UTC.
Position N 44°48' W 087°24'.

Length 305 m; draft 8.1 m.

Type: Cargo ship. MMSI: 367050550.

Wind from 130 at 1 knots

Barometer 1031.6 mb
Air temperature -9.3 ° C
Water temperature 0.2 ° C

Date/timePositionNaut miles runAvg speedWind from/ knotsBaromVisibWave heightAir tempDewpointWater temp
2018-Jan-17 00:00N 44°48' W 087°24'0 0.0 130 / 11031.6 -9.3 0.2
2018-Jan-16 23:00N 44°48' W 087°24'0 0.0 210 / 21031.6 -9.6 0.6
2018-Jan-16 22:00N 44°48' W 087°24'0 0.0 310 / 11031.6 -7.8 -0.0
2018-Jan-16 21:00N 44°48' W 087°24'0 0.0 020 / 31032.0 -8.2 -0.0
2018-Jan-16 20:00N 44°48' W 087°24'54 4.2 330 / 61031.6 -9.8 -0.0
2018-Jan-16 07:00N 43°54' W 087°30'1312.8 060 / 131026.5 -4.7 0.4
2018-Jan-16 06:00N 43°42' W 087°36'1312.8 050 / 151026.2 -4.8 0.2
2018-Jan-16 05:00N 43°30' W 087°42'6 6.0 040 / 131026.2 -4.6 0.7
2018-Jan-16 04:00N 43°24' W 087°42'6 6.0 040 / 121025.5 -5.1 1.0
2018-Jan-16 03:00N 43°18' W 087°42'1312.8 040 / 141024.8 -4.7 1.6
2018-Jan-16 02:00N 43°06' W 087°36'6 6.0 050 / 171023.8 -4.1 1.6
2018-Jan-16 01:00N 43°00' W 087°36'1312.8 070 / 121023.8 -4.0 1.3
2018-Jan-16 00:00N 42°48' W 087°30'7 7.4 300 / 71023.5 -4.4 1.5
2018-Jan-15 23:00N 42°42' W 087°24'1312.8 290 / 81022.5 -4.0 3.4
2018-Jan-15 22:00N 42°30' W 087°18'49 9.8 240 / 51022.1 -3.9 3.5
2018-Jan-15 17:00N 41°42' W 087°06'6 6.0 180 / 101021.8 -5.0 -0.0
2018-Jan-15 16:00N 41°36' W 087°06'0 0.0 160 / 101021.8 -6.0 2.3
2018-Jan-15 15:00N 41°36' W 087°06'0 0.0 150 / 121021.8 -7.1 2.2
2018-Jan-15 14:00N 41°36' W 087°06'0 0.0 150 / 121021.8 -7.6 1.8
2018-Jan-15 13:00N 41°36' W 087°06'0 0.0 150 / 131021.8 -7.8 1.7
2018-Jan-15 12:00N 41°36' W 087°06'0 0.0 150 / 101022.1 -7.7 1.4
2018-Jan-15 11:00N 41°36' W 087°06'0 0.0 160 / 151021.8 -7.8 1.3
2018-Jan-15 10:00N 41°36' W 087°06'0 0.0 150 / 141022.5 -7.7 1.4
2018-Jan-15 09:00N 41°36' W 087°06'0 0.0 160 / 161023.2 -7.4 0.1
2018-Jan-15 08:00N 41°36' W 087°06'0 0.0 160 / 151023.8 -7.5 0.1
2018-Jan-15 07:00N 41°36' W 087°06'0 0.0 160 / 101024.8 -7.4 -0.0
2018-Jan-15 06:00N 41°36' W 087°06'0 0.0 150 / 141025.9 -7.7 -0.0
2018-Jan-15 05:00N 41°36' W 087°06'0 0.0 160 / 131026.5 -7.7 -0.0
2018-Jan-15 04:00N 41°36' W 087°06'0 0.0 140 / 131027.2 -8.4 -0.0
2018-Jan-15 03:00N 41°36' W 087°06'0 0.0 160 / 121027.9 -8.4 -0.0
2018-Jan-15 02:00N 41°36' W 087°06'0 0.0 160 / 151028.6 -8.6 -0.0
2018-Jan-15 01:00N 41°36' W 087°06'0 0.0 170 / 131029.2 -8.4 -0.0
2018-Jan-15 00:00N 41°36' W 087°06'0 0.0 160 / 141029.9 -8.1 -0.0
2018-Jan-14 23:00N 41°36' W 087°06'0 0.0 170 / 141030.6 -8.0 -0.0
2018-Jan-14 22:00N 41°36' W 087°06'0 0.0 180 / 151031.3 -8.0 -0.0
2018-Jan-14 21:00N 41°36' W 087°06'0 0.0 180 / 121031.6 -7.4 -0.0
2018-Jan-14 20:00N 41°36' W 087°06'0 0.0 180 / 111032.6 -7.6 -0.0
2018-Jan-14 19:00N 41°36' W 087°06'0 0.0 190 / 121033.7 -8.1 -0.0
2018-Jan-14 18:00N 41°36' W 087°06'0 0.0 200 / 121035.0 -9.1 -0.0
2018-Jan-14 17:00N 41°36' W 087°06'0 0.0 190 / 121036.4 -9.6 0.1
2018-Jan-14 16:00N 41°36' W 087°06'0 0.0 190 / 111037.4 -10.3 -0.0
2018-Jan-14 15:00N 41°36' W 087°06'0 0.0 180 / 81037.7 -11.5 0.2
2018-Jan-14 14:00N 41°36' W 087°06'0 0.0 190 / 61037.7 -14.2 0.1
2018-Jan-14 13:00N 41°36' W 087°06'0 0.0 170 / 71037.7 -14.8 0.3
2018-Jan-14 12:00N 41°36' W 087°06'0 0.0 190 / 51037.7 -14.3 0.4
2018-Jan-14 11:00N 41°36' W 087°06'0 0.0 190 / 51037.4 -14.1 0.3
2018-Jan-14 10:00N 41°36' W 087°06'0 0.0 180 / 71037.0 -13.8 0.4
2018-Jan-14 09:00N 41°36' W 087°06'0 0.0 190 / 61037.4 -12.5 0.6
2018-Jan-14 08:00N 41°36' W 087°06'0 0.0 190 / 51037.4 -12.3 0.4
2018-Jan-14 07:00N 41°36' W 087°06'0 0.0 190 / 81037.0 -12.4 -0.0
2018-Jan-14 06:00N 41°36' W 087°06'0 0.0 190 / 71037.0 -12.2 -0.0
2018-Jan-14 05:00N 41°36' W 087°06'0 0.0 190 / 71037.4 -11.6 -0.0
2018-Jan-14 04:00N 41°36' W 087°06'0 0.0 190 / 71037.0 -11.0 -0.0
2018-Jan-14 03:00N 41°36' W 087°06'0 0.0 190 / 61037.0 -11.2 -0.0
2018-Jan-14 02:00N 41°36' W 087°06'0 0.0 290 / 51037.0 -9.3 -0.0
2018-Jan-14 01:00N 41°36' W 087°06'0 0.0 310 / 51036.7 -9.4 -0.0
2018-Jan-14 00:00N 41°36' W 087°06'0 0.0 010 / 31036.7 -9.6 -0.0
2018-Jan-13 23:00N 41°36' W 087°06'0 0.0 340 / 51036.4 -9.7 -0.0
2018-Jan-12 15:00N 41°36' W 087°06'0 0.0 360 / 281018.1 -3.4 3.8
2018-Jan-12 14:00N 41°36' W 087°06'0 0.0 350 / 311016.7 -3.6 3.5
2018-Jan-12 13:00N 41°36' W 087°06'0 0.0 340 / 311016.4 -3.6 3.0
2018-Jan-12 12:00N 41°36' W 087°06'0 0.0 350 / 291014.7 -2.7 2.8
2018-Jan-12 11:00N 41°36' W 087°06'0 0.0 1014.3 -2.0 2.8
2018-Jan-12 10:00N 41°36' W 087°06'0 0.0 320 / 141013.3 -3.6 3.0
2018-Jan-12 09:00N 41°36' W 087°06'0 0.0 320 / 141012.7 -3.6 3.0
2018-Jan-12 08:00N 41°36' W 087°06'0 0.0 320 / 111012.3 -3.8 3.1
2018-Jan-12 07:00N 41°36' W 087°06'0 0.0 290 / 111013.0 -3.5 3.0
2018-Jan-12 06:00N 41°36' W 087°06'0 0.0 300 / 111011.6 -3.3 3.0
2018-Jan-12 05:00N 41°36' W 087°06'0 0.0 290 / 171011.6 -2.3 2.8
2018-Jan-12 04:00N 41°36' W 087°06'0 0.0 290 / 141010.6 -0.9 2.9
2018-Jan-12 03:00N 41°36' W 087°06'0 0.0 280 / 191010.3 1.0 3.3
2018-Jan-12 02:00N 41°36' W 087°06'0 0.0 290 / 141008.6 2.6 3.8
2018-Jan-12 01:00N 41°36' W 087°06'0 0.0 280 / 241008.3 5.1 4.1
2018-Jan-12 00:00N 41°36' W 087°06'0 0.0 280 / 231006.6 9.2 4.2
2018-Jan-11 23:00N 41°36' W 087°06'0 0.0 190 / 161005.5 14.5 4.5
2018-Jan-11 22:00N 41°36' W 087°06'0 0.0 190 / 131005.5 14.7 5.6
2018-Jan-11 21:00N 41°36' W 087°06'0 0.0 180 / 81005.5 14.1 5.5
2018-Jan-11 20:00N 41°36' W 087°06'0 0.0 180 / 101005.5 14.7 5.4
2018-Jan-11 19:00N 41°36' W 087°06'0 0.0 180 / 131005.9 14.9 5.4
2018-Jan-11 18:00N 41°36' W 087°06'0 0.0 170 / 151006.9 14.5 5.5
2018-Jan-11 17:00N 41°36' W 087°06'0 0.0 200 / 141007.9 14.5 5.4
2018-Jan-11 16:00N 41°36' W 087°06'0 0.0 170 / 151008.9 14.2 5.3
2018-Jan-11 15:00N 41°36' W 087°06'0 0.0 170 / 131008.9 13.8 5.4
2018-Jan-11 14:00N 41°36' W 087°06'0 0.0 190 / 171008.6 13.9 5.4
2018-Jan-11 13:00N 41°36' W 087°06'0 0.0 170 / 151008.9 13.3 5.4
2018-Jan-11 12:00N 41°36' W 087°06'0 0.0 190 / 161009.3 13.3 5.3
2018-Jan-11 11:00N 41°36' W 087°06'0 0.0 190 / 161009.6 13.7 5.4
2018-Jan-11 10:00N 41°36' W 087°06'0 0.0 180 / 171009.9 13.7 5.4
2018-Jan-11 09:00N 41°36' W 087°06'0 0.0 180 / 161010.3 13.3 5.3
2018-Jan-11 08:00N 41°36' W 087°06'0 0.0 180 / 181009.9 13.8 5.3
2018-Jan-11 07:00N 41°36' W 087°06'0 0.0 190 / 151009.6 13.6 5.3
2018-Jan-11 06:00N 41°36' W 087°06'0 0.0 210 / 151009.6 13.6 5.4
2018-Jan-11 05:00N 41°36' W 087°06'0 0.0 190 / 181009.6 13.4 5.3
2018-Jan-11 04:00N 41°36' W 087°06'0 0.0 190 / 201008.9 13.0 5.3
2018-Jan-11 03:00N 41°36' W 087°06'0 0.0 200 / 201009.3 12.7 5.2
2018-Jan-11 02:00N 41°36' W 087°06'0 0.0 190 / 191009.3 12.3 4.8
2018-Jan-11 01:00N 41°36' W 087°06'0 0.0 210 / 181009.3 11.6 4.8
2018-Jan-11 00:00N 41°36' W 087°06'0 0.0 160 / 151009.3 10.9 4.7
2018-Jan-10 23:00N 41°36' W 087°06'0 0.0 190 / 151009.9 10.0 4.6
2018-Jan-10 22:00N 41°36' W 087°06'6 6.0 160 / 161009.9 9.2 4.5
2018-Jan-10 21:00N 41°42' W 087°06'0 0.0 170 / 231009.6 8.8 -0.0
2018-Jan-10 20:00N 41°42' W 087°06'0 0.0 190 / 221009.6 6.8 -0.0
2018-Jan-10 19:00N 41°42' W 087°06'6 6.0 190 / 211010.3 5.9 -0.0
2018-Jan-10 18:00N 41°48' W 087°06'0 0.0 180 / 201011.3 5.5 -0.0
2018-Jan-10 17:00N 41°48' W 087°06'0 0.0 180 / 191013.0 4.4 -0.0
2018-Jan-10 16:00N 41°48' W 087°06'0 0.0 170 / 211014.0 4.0 -0.0
2018-Jan-10 15:00N 41°48' W 087°06'6 6.0 160 / 161014.3 2.9 0.6
2018-Jan-10 14:00N 41°54' W 087°06'6 6.0 160 / 161014.3 2.6 1.6
2018-Jan-10 13:00N 42°00' W 087°06'6 6.0 160 / 201014.7 2.8 2.6
2018-Jan-10 12:00N 42°06' W 087°06'8512.1 160 / 181015.4 2.8 3.2
2018-Jan-10 05:00N 43°30' W 086°48'1212.0 160 / 181021.5 1.7 2.3
2018-Jan-10 04:00N 43°42' W 086°48'1312.8 140 / 211021.8 1.4 3.0
2018-Jan-10 03:00N 43°54' W 086°42'1212.0 150 / 171022.1 1.5 4.2
2018-Jan-10 02:00N 44°06' W 086°42'1918.5 150 / 161022.5 1.7 3.9
2018-Jan-10 01:00N 44°24' W 086°36'1312.7 140 / 171022.1 1.9 4.0
2018-Jan-10 00:00N 44°36' W 086°30'1312.7 180 / 261022.8 1.5 4.3
2018-Jan-09 23:00N 44°48' W 086°24'1212.0 150 / 111023.5 0.6 4.2
2018-Jan-09 22:00N 45°00' W 086°24'1312.7 160 / 71024.2 -0.3 3.8
2018-Jan-09 21:00N 45°12' W 086°18'3012.7 180 / 91024.5 -1.0 4.7
2018-Jan-09 18:37N 45°40' W 086°01'213.0
2018-Jan-09 18:28N 45°41' W 085°59'612.9
2018-Jan-09 18:00N 45°46' W 085°54'2248.9
2018-Jan-09 18:00N 45°48' W 085°54'611.9 210 / 41025.2 -2.7 1.3
2018-Jan-09 17:30N 45°49' W 085°46'612.9
2018-Jan-09 17:00N 45°52' W 085°38'2152.7
2018-Jan-09 17:00N 45°54' W 085°36'5 9.9 190 / 31025.5 -3.2 -0.0
2018-Jan-09 16:30N 45°53' W 085°29'612.6
2018-Jan-09 16:00N 45°52' W 085°20'3355.2
2018-Jan-09 16:00N 45°54' W 085°24'816.8 020 / 31025.5 -3.0 -0.0
2018-Jan-09 15:30N 45°52' W 085°13'510.3
2018-Jan-09 15:00N 45°51' W 085°05'3203.4
2018-Jan-09 15:00N 45°54' W 085°06'3 6.7 300 / 71025.2 -3.4 -0.0
2018-Jan-09 14:30N 45°51' W 085°04'0 0.0
2018-Jan-09 14:00N 45°51' W 085°04'3219.9
2018-Jan-09 14:00N 45°48' W 085°06'3 6.5 290 / 81023.8 -3.6 -0.0
2018-Jan-09 13:30N 45°51' W 085°04'0 0.0
2018-Jan-09 13:00N 45°51' W 085°04'3220.1
2018-Jan-09 13:00N 45°48' W 085°06'3 6.5 290 / 81023.2 -3.7 -0.0
2018-Jan-09 12:30N 45°51' W 085°04'0 0.0
2018-Jan-09 12:00N 45°51' W 085°04'3357.1
2018-Jan-09 12:00N 45°48' W 085°06'3 6.5 300 / 111022.5 -3.6 -0.0
2018-Jan-09 11:30N 45°51' W 085°04'0 0.0
2018-Jan-09 11:00N 45°51' W 085°04'3220.1
2018-Jan-09 11:00N 45°48' W 085°06'3 6.5 290 / 101021.5 -3.4 -0.0
2018-Jan-09 10:30N 45°51' W 085°04'0 0.0
2018-Jan-09 10:00N 45°51' W 085°04'3216.0
2018-Jan-09 10:00N 45°48' W 085°06'3 6.5 300 / 161020.8 -3.4 -0.0
2018-Jan-09 09:30N 45°51' W 085°04'0 0.0
2018-Jan-09 09:00N 45°51' W 085°04'3219.9
2018-Jan-09 09:00N 45°48' W 085°06'3 6.6 280 / 151020.1 -3.3 -0.0
2018-Jan-09 08:30N 45°51' W 085°04'2 3.1
2018-Jan-09 08:00N 45°51' W 085°02'3197.8
2018-Jan-09 08:00N 45°48' W 085°00'3 5.2 290 / 141019.1 -3.1 -0.0
2018-Jan-09 07:30N 45°50' W 085°01'1 1.8
2018-Jan-09 07:00N 45°50' W 084°59'2158.1
2018-Jan-09 07:00N 45°48' W 085°00'4 8.5 300 / 141018.4 -3.1 -0.0
2018-Jan-09 06:30N 45°50' W 084°55'4 7.3
2018-Jan-09 06:00N 45°49' W 084°49'2122.0
2018-Jan-09 06:00N 45°48' W 084°48'4 7.9 280 / 111017.4 -3.3 -0.0
2018-Jan-09 05:29N 45°49' W 084°43'510.0
2018-Jan-09 05:00N 45°51' W 084°36'3183.8
2018-Jan-09 05:00N 45°48' W 084°36'714.9 290 / 141016.0 -3.0 0.1
2018-Jan-09 04:30N 45°52' W 084°27'3 6.0
2018-Jan-09 04:00N 45°54' W 084°24'31259.7 290 / 211014.7 -2.6 1.5
2018-Jan-09 03:59N 45°53' W 084°20'6 6.1
2018-Jan-09 03:00N 45°54' W 084°12'8 8.4 290 / 261013.3 -2.4 1.2
2018-Jan-09 02:00N 45°54' W 084°00'7 7.3 290 / 251012.0 -1.9 0.4
2018-Jan-09 01:00N 46°00' W 083°54'7 7.3 300 / 191011.3 -2.1 -0.0
2018-Jan-09 00:00N 46°06' W 084°00'1010.3 300 / 141010.3 -1.6 -0.0
2018-Jan-08 23:00N 46°12' W 084°12'6 6.0 280 / 161008.9 -1.4 -0.0
2018-Jan-08 22:00N 46°18' W 084°12'7 7.3 270 / 121008.3 -1.1 -0.0
2018-Jan-08 21:00N 46°24' W 084°18'6 6.0 260 / 161006.6 -1.1 -0.0
2018-Jan-08 20:00N 46°30' W 084°18'4 4.1 240 / 91005.2 -1.4 -0.0
2018-Jan-08 19:00N 46°30' W 084°24'0 0.0 250 / 101005.1 -1.9 -0.0
2018-Jan-08 18:00N 46°30' W 084°24'8 8.3 240 / 161005.4 -2.5 -0.0
2018-Jan-08 17:00N 46°30' W 084°36'7 7.3 230 / 181005.4 -2.4 -0.0
2018-Jan-08 16:00N 46°36' W 084°42'1010.2 240 / 251005.4 -2.2 -0.0
2018-Jan-08 15:00N 46°42' W 084°54'1010.2 230 / 161004.7 -2.8 -0.0
2018-Jan-08 14:00N 46°48' W 085°06'1413.7 280 / 181004.7 -0.4 -0.0
2018-Jan-08 13:00N 46°54' W 085°24'7913.2 280 / 171004.7 -0.6 2.6
2018-Jan-08 07:00N 47°24' W 087°12'1413.6 290 / 201004.7 -1.1 3.0
2018-Jan-08 06:00N 47°30' W 087°30'1212.2 280 / 161004.7 -1.6 1.8
2018-Jan-08 05:00N 47°30' W 087°48'1413.5 290 / 211005.1 -2.7 0.8
2018-Jan-08 04:00N 47°36' W 088°06'1212.1 300 / 191005.1 -2.3 2.3
2018-Jan-08 03:00N 47°36' W 088°24'1413.5 280 / 201005.4 -2.1 2.2
2018-Jan-08 02:00N 47°30' W 088°42'1212.2 290 / 211005.8 -1.6 2.3
2018-Jan-08 01:00N 47°30' W 089°00'1616.2 260 / 221006.1 -2.1 2.3
2018-Jan-08 00:00N 47°30' W 089°24'1413.6 260 / 221006.1 -2.0 2.4
2018-Jan-07 23:00N 47°24' W 089°42'1212.2 250 / 191006.1 -1.8 2.0
2018-Jan-07 22:00N 47°24' W 090°00'1212.2 260 / 231006.1 -2.3 1.8
2018-Jan-07 21:00N 47°24' W 090°18'1413.6 250 / 211006.1 -2.9 1.3
2018-Jan-07 20:00N 47°18' W 090°36'1212.2 250 / 191006.1 -3.2 1.8
2018-Jan-07 19:00N 47°18' W 090°54'1212.2 240 / 181006.4 -4.3 2.2
2018-Jan-07 18:00N 47°18' W 091°12'4 4.1 210 / 161007.5 -6.1 1.9
2018-Jan-07 17:00N 47°18' W 091°18'0 0.0 210 / 101008.5 -6.9 1.5
2018-Jan-07 16:00N 47°18' W 091°18'0 0.0 230 / 131009.1 -7.7 1.4
2018-Jan-07 15:00N 47°18' W 091°18'0 0.0 210 / 101009.1 -7.9 1.4
2018-Jan-07 14:00N 47°18' W 091°18'0 0.0 200 / 101009.5 -8.3 1.4
2018-Jan-07 13:00N 47°18' W 091°18'0 0.0 230 / 61009.5 -8.7 1.4
2018-Jan-07 12:00N 47°18' W 091°18'0 0.0 220 / 101009.1 -9.0 1.5
2018-Jan-07 11:00N 47°18' W 091°18'0 0.0 220 / 81009.8 -8.9 1.5
2018-Jan-07 10:00N 47°18' W 091°18'0 0.0 220 / 141010.2 -9.3 1.6
2018-Jan-07 09:00N 47°18' W 091°18'0 0.0 220 / 181010.5 -9.0 1.7
2018-Jan-07 08:00N 47°18' W 091°18'0 0.0 220 / 181011.2 -9.1 1.6
2018-Jan-07 07:00N 47°18' W 091°18'0 0.0 230 / 141011.9 -9.4 1.4
2018-Jan-07 06:00N 47°18' W 091°18'0 0.0 220 / 191012.9 -8.5 1.3
2018-Jan-07 05:00N 47°18' W 091°18'0 0.0 220 / 201014.2 -8.3 1.5
2018-Jan-07 04:00N 47°18' W 091°18'0 0.0 210 / 291015.6 -8.7 1.4
2018-Jan-07 03:00N 47°18' W 091°18'0 0.0 200 / 281016.9 -8.9 1.5
2018-Jan-07 02:00N 47°18' W 091°18'0 0.0 210 / 211019.3 -9.4 1.4
2018-Jan-07 01:00N 47°18' W 091°18'0 0.0 220 / 261021.0 -10.1 1.2
2018-Jan-07 00:00N 47°18' W 091°18'   210 / 201023.0 -9.9 1.3
Track history (hours):
 
Tides and Currents Weather Stations Pressure Air Temp Water Temp Dewpoint Dewpoint Depression Visibility Wind Speed Wind Dir Waves Ship Positions

Stewart J. Cort

Owner: THE INTERLAKE STEAMSHIP COMPANY, Middleburg Heights, OH. More information available from US FCC via Universal Licensing System and Coast Guard Vessel Documentation Center.

Last reported at 2018-Jan-17 00:00 UTC. Time now 2018-Jan-23 03:38 UTC.
Position N 44°48' W 087°24'.

Length 305 m; draft 8.1 m.

Type: Cargo ship. MMSI: 367050550.

Wind from 130 at 1 knots

Barometer 1031.6 mb
Air temperature -9.3 ° C
Water temperature 0.2 ° C

Date/timePositionNaut miles runAvg speedWind from/ knotsBaromVisibWave heightAir tempDewpointWater temp
2018-Jan-17 00:00N 44°48' W 087°24'0 0.0 130 / 11031.6 -9.3 0.2
2018-Jan-16 23:00N 44°48' W 087°24'0 0.0 210 / 21031.6 -9.6 0.6
2018-Jan-16 22:00N 44°48' W 087°24'0 0.0 310 / 11031.6 -7.8 -0.0
2018-Jan-16 21:00N 44°48' W 087°24'0 0.0 020 / 31032.0 -8.2 -0.0
2018-Jan-16 20:00N 44°48' W 087°24'54 4.2 330 / 61031.6 -9.8 -0.0
2018-Jan-16 07:00N 43°54' W 087°30'1312.8 060 / 131026.5 -4.7 0.4
2018-Jan-16 06:00N 43°42' W 087°36'1312.8 050 / 151026.2 -4.8 0.2
2018-Jan-16 05:00N 43°30' W 087°42'6 6.0 040 / 131026.2 -4.6 0.7
2018-Jan-16 04:00N 43°24' W 087°42'6 6.0 040 / 121025.5 -5.1 1.0
2018-Jan-16 03:00N 43°18' W 087°42'1312.8 040 / 141024.8 -4.7 1.6
2018-Jan-16 02:00N 43°06' W 087°36'6 6.0 050 / 171023.8 -4.1 1.6
2018-Jan-16 01:00N 43°00' W 087°36'1312.8 070 / 121023.8 -4.0 1.3
2018-Jan-16 00:00N 42°48' W 087°30'7 7.4 300 / 71023.5 -4.4 1.5
2018-Jan-15 23:00N 42°42' W 087°24'1312.8 290 / 81022.5 -4.0 3.4
2018-Jan-15 22:00N 42°30' W 087°18'49 9.8 240 / 51022.1 -3.9 3.5
2018-Jan-15 17:00N 41°42' W 087°06'6 6.0 180 / 101021.8 -5.0 -0.0
2018-Jan-15 16:00N 41°36' W 087°06'0 0.0 160 / 101021.8 -6.0 2.3
2018-Jan-15 15:00N 41°36' W 087°06'0 0.0 150 / 121021.8 -7.1 2.2
2018-Jan-15 14:00N 41°36' W 087°06'0 0.0 150 / 121021.8 -7.6 1.8
2018-Jan-15 13:00N 41°36' W 087°06'0 0.0 150 / 131021.8 -7.8 1.7
2018-Jan-15 12:00N 41°36' W 087°06'0 0.0 150 / 101022.1 -7.7 1.4
2018-Jan-15 11:00N 41°36' W 087°06'0 0.0 160 / 151021.8 -7.8 1.3
2018-Jan-15 10:00N 41°36' W 087°06'0 0.0 150 / 141022.5 -7.7 1.4
2018-Jan-15 09:00N 41°36' W 087°06'0 0.0 160 / 161023.2 -7.4 0.1
2018-Jan-15 08:00N 41°36' W 087°06'0 0.0 160 / 151023.8 -7.5 0.1
2018-Jan-15 07:00N 41°36' W 087°06'0 0.0 160 / 101024.8 -7.4 -0.0
2018-Jan-15 06:00N 41°36' W 087°06'0 0.0 150 / 141025.9 -7.7 -0.0
2018-Jan-15 05:00N 41°36' W 087°06'0 0.0 160 / 131026.5 -7.7 -0.0
2018-Jan-15 04:00N 41°36' W 087°06'0 0.0 140 / 131027.2 -8.4 -0.0
2018-Jan-15 03:00N 41°36' W 087°06'0 0.0 160 / 121027.9 -8.4 -0.0
2018-Jan-15 02:00N 41°36' W 087°06'0 0.0 160 / 151028.6 -8.6 -0.0
2018-Jan-15 01:00N 41°36' W 087°06'0 0.0 170 / 131029.2 -8.4 -0.0
2018-Jan-15 00:00N 41°36' W 087°06'0 0.0 160 / 141029.9 -8.1 -0.0
2018-Jan-14 23:00N 41°36' W 087°06'0 0.0 170 / 141030.6 -8.0 -0.0
2018-Jan-14 22:00N 41°36' W 087°06'0 0.0 180 / 151031.3 -8.0 -0.0
2018-Jan-14 21:00N 41°36' W 087°06'0 0.0 180 / 121031.6 -7.4 -0.0
2018-Jan-14 20:00N 41°36' W 087°06'0 0.0 180 / 111032.6 -7.6 -0.0
2018-Jan-14 19:00N 41°36' W 087°06'0 0.0 190 / 121033.7 -8.1 -0.0
2018-Jan-14 18:00N 41°36' W 087°06'0 0.0 200 / 121035.0 -9.1 -0.0
2018-Jan-14 17:00N 41°36' W 087°06'0 0.0 190 / 121036.4 -9.6 0.1
2018-Jan-14 16:00N 41°36' W 087°06'0 0.0 190 / 111037.4 -10.3 -0.0
2018-Jan-14 15:00N 41°36' W 087°06'0 0.0 180 / 81037.7 -11.5 0.2
2018-Jan-14 14:00N 41°36' W 087°06'0 0.0 190 / 61037.7 -14.2 0.1
2018-Jan-14 13:00N 41°36' W 087°06'0 0.0 170 / 71037.7 -14.8 0.3
2018-Jan-14 12:00N 41°36' W 087°06'0 0.0 190 / 51037.7 -14.3 0.4
2018-Jan-14 11:00N 41°36' W 087°06'0 0.0 190 / 51037.4 -14.1 0.3
2018-Jan-14 10:00N 41°36' W 087°06'0 0.0 180 / 71037.0 -13.8 0.4
2018-Jan-14 09:00N 41°36' W 087°06'0 0.0 190 / 61037.4 -12.5 0.6
2018-Jan-14 08:00N 41°36' W 087°06'0 0.0 190 / 51037.4 -12.3 0.4
2018-Jan-14 07:00N 41°36' W 087°06'0 0.0 190 / 81037.0 -12.4 -0.0
2018-Jan-14 06:00N 41°36' W 087°06'0 0.0 190 / 71037.0 -12.2 -0.0
2018-Jan-14 05:00N 41°36' W 087°06'0 0.0 190 / 71037.4 -11.6 -0.0
2018-Jan-14 04:00N 41°36' W 087°06'0 0.0 190 / 71037.0 -11.0 -0.0
2018-Jan-14 03:00N 41°36' W 087°06'0 0.0 190 / 61037.0 -11.2 -0.0
2018-Jan-14 02:00N 41°36' W 087°06'0 0.0 290 / 51037.0 -9.3 -0.0
2018-Jan-14 01:00N 41°36' W 087°06'0 0.0 310 / 51036.7 -9.4 -0.0
2018-Jan-14 00:00N 41°36' W 087°06'0 0.0 010 / 31036.7 -9.6 -0.0
2018-Jan-13 23:00N 41°36' W 087°06'0 0.0 340 / 51036.4 -9.7 -0.0
2018-Jan-12 15:00N 41°36' W 087°06'0 0.0 360 / 281018.1 -3.4 3.8
2018-Jan-12 14:00N 41°36' W 087°06'0 0.0 350 / 311016.7 -3.6 3.5
2018-Jan-12 13:00N 41°36' W 087°06'0 0.0 340 / 311016.4 -3.6 3.0
2018-Jan-12 12:00N 41°36' W 087°06'0 0.0 350 / 291014.7 -2.7 2.8
2018-Jan-12 11:00N 41°36' W 087°06'0 0.0 1014.3 -2.0 2.8
2018-Jan-12 10:00N 41°36' W 087°06'0 0.0 320 / 141013.3 -3.6 3.0
2018-Jan-12 09:00N 41°36' W 087°06'0 0.0 320 / 141012.7 -3.6 3.0
2018-Jan-12 08:00N 41°36' W 087°06'0 0.0 320 / 111012.3 -3.8 3.1
2018-Jan-12 07:00N 41°36' W 087°06'0 0.0 290 / 111013.0 -3.5 3.0
2018-Jan-12 06:00N 41°36' W 087°06'0 0.0 300 / 111011.6 -3.3 3.0
2018-Jan-12 05:00N 41°36' W 087°06'0 0.0 290 / 171011.6 -2.3 2.8
2018-Jan-12 04:00N 41°36' W 087°06'0 0.0 290 / 141010.6 -0.9 2.9
2018-Jan-12 03:00N 41°36' W 087°06'0 0.0 280 / 191010.3 1.0 3.3
2018-Jan-12 02:00N 41°36' W 087°06'0 0.0 290 / 141008.6 2.6 3.8
2018-Jan-12 01:00N 41°36' W 087°06'0 0.0 280 / 241008.3 5.1 4.1
2018-Jan-12 00:00N 41°36' W 087°06'0 0.0 280 / 231006.6 9.2 4.2
2018-Jan-11 23:00N 41°36' W 087°06'0 0.0 190 / 161005.5 14.5 4.5
2018-Jan-11 22:00N 41°36' W 087°06'0 0.0 190 / 131005.5 14.7 5.6
2018-Jan-11 21:00N 41°36' W 087°06'0 0.0 180 / 81005.5 14.1 5.5
2018-Jan-11 20:00N 41°36' W 087°06'0 0.0 180 / 101005.5 14.7 5.4
2018-Jan-11 19:00N 41°36' W 087°06'0 0.0 180 / 131005.9 14.9 5.4
2018-Jan-11 18:00N 41°36' W 087°06'0 0.0 170 / 151006.9 14.5 5.5
2018-Jan-11 17:00N 41°36' W 087°06'0 0.0 200 / 141007.9 14.5 5.4
2018-Jan-11 16:00N 41°36' W 087°06'0 0.0 170 / 151008.9 14.2 5.3
2018-Jan-11 15:00N 41°36' W 087°06'0 0.0 170 / 131008.9 13.8 5.4
2018-Jan-11 14:00N 41°36' W 087°06'0 0.0 190 / 171008.6 13.9 5.4
2018-Jan-11 13:00N 41°36' W 087°06'0 0.0 170 / 151008.9 13.3 5.4
2018-Jan-11 12:00N 41°36' W 087°06'0 0.0 190 / 161009.3 13.3 5.3
2018-Jan-11 11:00N 41°36' W 087°06'0 0.0 190 / 161009.6 13.7 5.4
2018-Jan-11 10:00N 41°36' W 087°06'0 0.0 180 / 171009.9 13.7 5.4
2018-Jan-11 09:00N 41°36' W 087°06'0 0.0 180 / 161010.3 13.3 5.3
2018-Jan-11 08:00N 41°36' W 087°06'0 0.0 180 / 181009.9 13.8 5.3
2018-Jan-11 07:00N 41°36' W 087°06'0 0.0 190 / 151009.6 13.6 5.3
2018-Jan-11 06:00N 41°36' W 087°06'0 0.0 210 / 151009.6 13.6 5.4
2018-Jan-11 05:00N 41°36' W 087°06'0 0.0 190 / 181009.6 13.4 5.3
2018-Jan-11 04:00N 41°36' W 087°06'0 0.0 190 / 201008.9 13.0 5.3
2018-Jan-11 03:00N 41°36' W 087°06'0 0.0 200 / 201009.3 12.7 5.2
2018-Jan-11 02:00N 41°36' W 087°06'0 0.0 190 / 191009.3 12.3 4.8
2018-Jan-11 01:00N 41°36' W 087°06'0 0.0 210 / 181009.3 11.6 4.8
2018-Jan-11 00:00N 41°36' W 087°06'0 0.0 160 / 151009.3 10.9 4.7
2018-Jan-10 23:00N 41°36' W 087°06'0 0.0 190 / 151009.9 10.0 4.6
2018-Jan-10 22:00N 41°36' W 087°06'6 6.0 160 / 161009.9 9.2 4.5
2018-Jan-10 21:00N 41°42' W 087°06'0 0.0 170 / 231009.6 8.8 -0.0
2018-Jan-10 20:00N 41°42' W 087°06'0 0.0 190 / 221009.6 6.8 -0.0
2018-Jan-10 19:00N 41°42' W 087°06'6 6.0 190 / 211010.3 5.9 -0.0
2018-Jan-10 18:00N 41°48' W 087°06'0 0.0 180 / 201011.3 5.5 -0.0
2018-Jan-10 17:00N 41°48' W 087°06'0 0.0 180 / 191013.0 4.4 -0.0
2018-Jan-10 16:00N 41°48' W 087°06'0 0.0 170 / 211014.0 4.0 -0.0
2018-Jan-10 15:00N 41°48' W 087°06'6 6.0 160 / 161014.3 2.9 0.6
2018-Jan-10 14:00N 41°54' W 087°06'6 6.0 160 / 161014.3 2.6 1.6
2018-Jan-10 13:00N 42°00' W 087°06'6 6.0 160 / 201014.7 2.8 2.6
2018-Jan-10 12:00N 42°06' W 087°06'8512.1 160 / 181015.4 2.8 3.2
2018-Jan-10 05:00N 43°30' W 086°48'1212.0 160 / 181021.5 1.7 2.3
2018-Jan-10 04:00N 43°42' W 086°48'1312.8 140 / 211021.8 1.4 3.0
2018-Jan-10 03:00N 43°54' W 086°42'1212.0 150 / 171022.1 1.5 4.2
2018-Jan-10 02:00N 44°06' W 086°42'1918.5 150 / 161022.5 1.7 3.9
2018-Jan-10 01:00N 44°24' W 086°36'1312.7 140 / 171022.1 1.9 4.0
2018-Jan-10 00:00N 44°36' W 086°30'1312.7 180 / 261022.8 1.5 4.3
2018-Jan-09 23:00N 44°48' W 086°24'1212.0 150 / 111023.5 0.6 4.2
2018-Jan-09 22:00N 45°00' W 086°24'1312.7 160 / 71024.2 -0.3 3.8
2018-Jan-09 21:00N 45°12' W 086°18'3012.7 180 / 91024.5 -1.0 4.7
2018-Jan-09 18:37N 45°40' W 086°01'213.0
2018-Jan-09 18:28N 45°41' W 085°59'612.9
2018-Jan-09 18:00N 45°46' W 085°54'2248.9
2018-Jan-09 18:00N 45°48' W 085°54'611.9 210 / 41025.2 -2.7 1.3
2018-Jan-09 17:30N 45°49' W 085°46'612.9
2018-Jan-09 17:00N 45°52' W 085°38'2152.7
2018-Jan-09 17:00N 45°54' W 085°36'5 9.9 190 / 31025.5 -3.2 -0.0
2018-Jan-09 16:30N 45°53' W 085°29'612.6
2018-Jan-09 16:00N 45°52' W 085°20'3355.2
2018-Jan-09 16:00N 45°54' W 085°24'816.8 020 / 31025.5 -3.0 -0.0
2018-Jan-09 15:30N 45°52' W 085°13'510.3
2018-Jan-09 15:00N 45°51' W 085°05'3203.4
2018-Jan-09 15:00N 45°54' W 085°06'3 6.7 300 / 71025.2 -3.4 -0.0
2018-Jan-09 14:30N 45°51' W 085°04'0 0.0
2018-Jan-09 14:00N 45°51' W 085°04'3219.9
2018-Jan-09 14:00N 45°48' W 085°06'3 6.5 290 / 81023.8 -3.6 -0.0
2018-Jan-09 13:30N 45°51' W 085°04'0 0.0
2018-Jan-09 13:00N 45°51' W 085°04'3220.1
2018-Jan-09 13:00N 45°48' W 085°06'3 6.5 290 / 81023.2 -3.7 -0.0
2018-Jan-09 12:30N 45°51' W 085°04'0 0.0
2018-Jan-09 12:00N 45°51' W 085°04'3357.1
2018-Jan-09 12:00N 45°48' W 085°06'3 6.5 300 / 111022.5 -3.6 -0.0
2018-Jan-09 11:30N 45°51' W 085°04'0 0.0
2018-Jan-09 11:00N 45°51' W 085°04'3220.1
2018-Jan-09 11:00N 45°48' W 085°06'3 6.5 290 / 101021.5 -3.4 -0.0
2018-Jan-09 10:30N 45°51' W 085°04'0 0.0
2018-Jan-09 10:00N 45°51' W 085°04'3216.0
2018-Jan-09 10:00N 45°48' W 085°06'3 6.5 300 / 161020.8 -3.4 -0.0
2018-Jan-09 09:30N 45°51' W 085°04'0 0.0
2018-Jan-09 09:00N 45°51' W 085°04'3219.9
2018-Jan-09 09:00N 45°48' W 085°06'3 6.6 280 / 151020.1 -3.3 -0.0
2018-Jan-09 08:30N 45°51' W 085°04'2 3.1
2018-Jan-09 08:00N 45°51' W 085°02'3197.8
2018-Jan-09 08:00N 45°48' W 085°00'3 5.2 290 / 141019.1 -3.1 -0.0
2018-Jan-09 07:30N 45°50' W 085°01'1 1.8
2018-Jan-09 07:00N 45°50' W 084°59'2158.1
2018-Jan-09 07:00N 45°48' W 085°00'4 8.5 300 / 141018.4 -3.1 -0.0
2018-Jan-09 06:30N 45°50' W 084°55'4 7.3
2018-Jan-09 06:00N 45°49' W 084°49'2122.0
2018-Jan-09 06:00N 45°48' W 084°48'4 7.9 280 / 111017.4 -3.3 -0.0
2018-Jan-09 05:29N 45°49' W 084°43'510.0
2018-Jan-09 05:00N 45°51' W 084°36'3183.8
2018-Jan-09 05:00N 45°48' W 084°36'714.9 290 / 141016.0 -3.0 0.1
2018-Jan-09 04:30N 45°52' W 084°27'3 6.0
2018-Jan-09 04:00N 45°54' W 084°24'31259.7 290 / 211014.7 -2.6 1.5
2018-Jan-09 03:59N 45°53' W 084°20'6 6.1
2018-Jan-09 03:00N 45°54' W 084°12'8 8.4 290 / 261013.3 -2.4 1.2
2018-Jan-09 02:00N 45°54' W 084°00'7 7.3 290 / 251012.0 -1.9 0.4
2018-Jan-09 01:00N 46°00' W 083°54'7 7.3 300 / 191011.3 -2.1 -0.0
2018-Jan-09 00:00N 46°06' W 084°00'1010.3 300 / 141010.3 -1.6 -0.0
2018-Jan-08 23:00N 46°12' W 084°12'6 6.0 280 / 161008.9 -1.4 -0.0
2018-Jan-08 22:00N 46°18' W 084°12'7 7.3 270 / 121008.3 -1.1 -0.0
2018-Jan-08 21:00N 46°24' W 084°18'6 6.0 260 / 161006.6 -1.1 -0.0
2018-Jan-08 20:00N 46°30' W 084°18'4 4.1 240 / 91005.2 -1.4 -0.0
2018-Jan-08 19:00N 46°30' W 084°24'0 0.0 250 / 101005.1 -1.9 -0.0
2018-Jan-08 18:00N 46°30' W 084°24'8 8.3 240 / 161005.4 -2.5 -0.0
2018-Jan-08 17:00N 46°30' W 084°36'7 7.3 230 / 181005.4 -2.4 -0.0
2018-Jan-08 16:00N 46°36' W 084°42'1010.2 240 / 251005.4 -2.2 -0.0
2018-Jan-08 15:00N 46°42' W 084°54'1010.2 230 / 161004.7 -2.8 -0.0
2018-Jan-08 14:00N 46°48' W 085°06'1413.7 280 / 181004.7 -0.4 -0.0
2018-Jan-08 13:00N 46°54' W 085°24'7913.2 280 / 171004.7 -0.6 2.6
2018-Jan-08 07:00N 47°24' W 087°12'1413.6 290 / 201004.7 -1.1 3.0
2018-Jan-08 06:00N 47°30' W 087°30'1212.2 280 / 161004.7 -1.6 1.8
2018-Jan-08 05:00N 47°30' W 087°48'1413.5 290 / 211005.1 -2.7 0.8
2018-Jan-08 04:00N 47°36' W 088°06'1212.1 300 / 191005.1 -2.3 2.3
2018-Jan-08 03:00N 47°36' W 088°24'1413.5 280 / 201005.4 -2.1 2.2
2018-Jan-08 02:00N 47°30' W 088°42'1212.2 290 / 211005.8 -1.6 2.3
2018-Jan-08 01:00N 47°30' W 089°00'1616.2 260 / 221006.1 -2.1 2.3
2018-Jan-08 00:00N 47°30' W 089°24'1413.6 260 / 221006.1 -2.0 2.4
2018-Jan-07 23:00N 47°24' W 089°42'1212.2 250 / 191006.1 -1.8 2.0
2018-Jan-07 22:00N 47°24' W 090°00'1212.2 260 / 231006.1 -2.3 1.8
2018-Jan-07 21:00N 47°24' W 090°18'1413.6 250 / 211006.1 -2.9 1.3
2018-Jan-07 20:00N 47°18' W 090°36'1212.2 250 / 191006.1 -3.2 1.8
2018-Jan-07 19:00N 47°18' W 090°54'1212.2 240 / 181006.4 -4.3 2.2
2018-Jan-07 18:00N 47°18' W 091°12'4 4.1 210 / 161007.5 -6.1 1.9
2018-Jan-07 17:00N 47°18' W 091°18'0 0.0 210 / 101008.5 -6.9 1.5
2018-Jan-07 16:00N 47°18' W 091°18'0 0.0 230 / 131009.1 -7.7 1.4
2018-Jan-07 15:00N 47°18' W 091°18'0 0.0 210 / 101009.1 -7.9 1.4
2018-Jan-07 14:00N 47°18' W 091°18'0 0.0 200 / 101009.5 -8.3 1.4
2018-Jan-07 13:00N 47°18' W 091°18'0 0.0 230 / 61009.5 -8.7 1.4
2018-Jan-07 12:00N 47°18' W 091°18'0 0.0 220 / 101009.1 -9.0 1.5
2018-Jan-07 11:00N 47°18' W 091°18'0 0.0 220 / 81009.8 -8.9 1.5
2018-Jan-07 10:00N 47°18' W 091°18'0 0.0 220 / 141010.2 -9.3 1.6
2018-Jan-07 09:00N 47°18' W 091°18'0 0.0 220 / 181010.5 -9.0 1.7
2018-Jan-07 08:00N 47°18' W 091°18'0 0.0 220 / 181011.2 -9.1 1.6
2018-Jan-07 07:00N 47°18' W 091°18'0 0.0 230 / 141011.9 -9.4 1.4
2018-Jan-07 06:00N 47°18' W 091°18'0 0.0 220 / 191012.9 -8.5 1.3
2018-Jan-07 05:00N 47°18' W 091°18'0 0.0 220 / 201014.2 -8.3 1.5
2018-Jan-07 04:00N 47°18' W 091°18'0 0.0 210 / 291015.6 -8.7 1.4
2018-Jan-07 03:00N 47°18' W 091°18'0 0.0 200 / 281016.9 -8.9 1.5
2018-Jan-07 02:00N 47°18' W 091°18'0 0.0 210 / 211019.3 -9.4 1.4
2018-Jan-07 01:00N 47°18' W 091°18'0 0.0 220 / 261021.0 -10.1 1.2
2018-Jan-07 00:00N 47°18' W 091°18'   210 / 201023.0 -9.9 1.3

Dump ship's entire track history